CheckWX is a tool to help pilots better visualize weather data.  It is not intended as a substitute for an official pre-flight weather briefing.

11:31:12 UTC

KEWR TAF
Newark Liberty International Airport
Newark, New Jersey, USA
KEWR 230830Z 2309/2412 VRB03KT P6SM FEW250 FM231500 23004KT P6SM SCT250 FM240400 20003KT P6SM SCT150 BKN250

Jan-23@
09:00 UTC

Jan-23 @ 09:00 UTC

Jan-23@
15:00 UTC

Jan-23 @ 15:00 UTC

KEWR 230830Z 2309/2412 VRB03KT P6SM FEW250
Wind
  • Variable at 3 KTS
Cloud Levels
  • Few at 25,000' AGL

Jan-23@
15:00 UTC

Jan-23 @ 15:00 UTC

Jan-24@
04:00 UTC

Jan-24 @ 04:00 UTC

FM231500 23004KT P6SM SCT250

From

From Standard forecast or significant change

Wind
  • 230° at 4 KTS
Cloud Levels
  • Scattered at 25,000' AGL

Jan-24@
04:00 UTC

Jan-24 @ 04:00 UTC

Jan-24@
12:00 UTC

Jan-24 @ 12:00 UTC

FM240400 20003KT P6SM SCT150 BKN250

From

From Standard forecast or significant change

Wind
  • 200° at 3 KTS
Cloud Levels
  • Scattered at 15,000' AGL
  • Broken at 25,000' AGL